sensor_id;sensor_type;location;lat;lon;timestamp;pressure;altitude;pressure_sealevel;temperature;humidity
43741;BME280;29352;48.708;9.290;2022-11-15T00:00:55;97654.06;;;-1.81;90.19
43741;BME280;29352;48.708;9.290;2022-11-15T00:03:23;97652.13;;;-1.79;90.55
43741;BME280;29352;48.708;9.290;2022-11-15T00:05:51;97648.22;;;-1.56;89.96
43741;BME280;29352;48.708;9.290;2022-11-15T00:08:17;97652.06;;;-1.50;89.95
43741;BME280;29352;48.708;9.290;2022-11-15T00:10:42;97648.50;;;-1.59;89.05
43741;BME280;29352;48.708;9.290;2022-11-15T00:13:12;97650.75;;;-1.74;88.74
43741;BME280;29352;48.708;9.290;2022-11-15T00:15:39;97651.84;;;-1.76;89.77
43741;BME280;29352;48.708;9.290;2022-11-15T00:18:12;97649.50;;;-1.79;89.73
43741;BME280;29352;48.708;9.290;2022-11-15T00:20:39;97649.63;;;-1.61;89.95
43741;BME280;29352;48.708;9.290;2022-11-15T00:23:04;97651.19;;;-1.78;90.54
43741;BME280;29352;48.708;9.290;2022-11-15T00:25:30;97648.09;;;-1.64;89.87
43741;BME280;29352;48.708;9.290;2022-11-15T00:27:57;97648.00;;;-1.72;90.80
43741;BME280;29352;48.708;9.290;2022-11-15T00:30:24;97644.41;;;-1.71;90.40
43741;BME280;29352;48.708;9.290;2022-11-15T00:32:50;97643.75;;;-1.46;90.96
43741;BME280;29352;48.708;9.290;2022-11-15T00:35:15;97635.22;;;-1.48;89.60
43741;BME280;29352;48.708;9.290;2022-11-15T00:37:41;97631.13;;;-1.32;89.11
43741;BME280;29352;48.708;9.290;2022-11-15T00:40:07;97623.69;;;-1.27;89.08
43741;BME280;29352;48.708;9.290;2022-11-15T00:42:33;97636.06;;;-1.47;90.28
43741;BME280;29352;48.708;9.290;2022-11-15T00:44:59;97630.28;;;-1.05;89.32
43741;BME280;29352;48.708;9.290;2022-11-15T00:47:24;97633.56;;;-1.03;87.20
43741;BME280;29352;48.708;9.290;2022-11-15T00:49:49;97629.22;;;-1.58;89.84
43741;BME280;29352;48.708;9.290;2022-11-15T00:52:15;97630.94;;;-1.49;89.65
43741;BME280;29352;48.708;9.290;2022-11-15T00:54:40;97623.72;;;-1.64;91.44
43741;BME280;29352;48.708;9.290;2022-11-15T00:57:06;97620.56;;;-1.58;91.09
43741;BME280;29352;48.708;9.290;2022-11-15T00:59:31;97620.69;;;-1.60;91.19
43741;BME280;29352;48.708;9.290;2022-11-15T01:01:56;97610.47;;;-1.63;89.92
43741;BME280;29352;48.708;9.290;2022-11-15T01:04:22;97615.75;;;-1.73;89.53
43741;BME280;29352;48.708;9.290;2022-11-15T01:06:47;97613.47;;;-1.85;90.95
43741;BME280;29352;48.708;9.290;2022-11-15T01:09:12;97615.50;;;-1.79;90.58
43741;BME280;29352;48.708;9.290;2022-11-15T01:11:38;97605.44;;;-1.74;89.38
43741;BME280;29352;48.708;9.290;2022-11-15T01:14:04;97607.25;;;-2.12;90.25
43741;BME280;29352;48.708;9.290;2022-11-15T01:16:30;97607.50;;;-2.05;91.03
43741;BME280;29352;48.708;9.290;2022-11-15T01:18:55;97597.91;;;-1.87;91.44
43741;BME280;29352;48.708;9.290;2022-11-15T01:21:20;97605.78;;;-1.59;91.51
43741;BME280;29352;48.708;9.290;2022-11-15T01:23:46;97589.13;;;-1.86;91.80
43741;BME280;29352;48.708;9.290;2022-11-15T01:26:14;97597.47;;;-2.10;90.69
43741;BME280;29352;48.708;9.290;2022-11-15T01:28:41;97598.81;;;-2.06;92.37
43741;BME280;29352;48.708;9.290;2022-11-15T01:31:13;97593.19;;;-2.11;90.71
43741;BME280;29352;48.708;9.290;2022-11-15T01:33:41;97587.25;;;-2.03;90.98
43741;BME280;29352;48.708;9.290;2022-11-15T01:36:13;97593.25;;;-2.21;90.83
43741;BME280;29352;48.708;9.290;2022-11-15T01:38:42;97596.69;;;-2.20;91.36
43741;BME280;29352;48.708;9.290;2022-11-15T01:41:15;97594.81;;;-2.38;91.94
43741;BME280;29352;48.708;9.290;2022-11-15T01:43:42;97583.09;;;-2.33;93.57
43741;BME280;29352;48.708;9.290;2022-11-15T01:46:30;97585.75;;;-2.06;90.05
43741;BME280;29352;48.708;9.290;2022-11-15T01:49:04;97589.84;;;-2.31;91.56
43741;BME280;29352;48.708;9.290;2022-11-15T01:51:36;97593.13;;;-2.39;92.09
43741;BME280;29352;48.708;9.290;2022-11-15T01:54:09;97586.78;;;-2.26;92.70
43741;BME280;29352;48.708;9.290;2022-11-15T01:56:47;97582.59;;;-2.66;90.67
43741;BME280;29352;48.708;9.290;2022-11-15T01:59:19;97578.22;;;-2.75;88.99
43741;BME280;29352;48.708;9.290;2022-11-15T02:01:45;97575.47;;;-2.74;90.14
43741;BME280;29352;48.708;9.290;2022-11-15T02:04:24;97571.47;;;-2.78;91.08
43741;BME280;29352;48.708;9.290;2022-11-15T02:06:53;97579.16;;;-2.76;90.75
43741;BME280;29352;48.708;9.290;2022-11-15T02:09:19;97582.91;;;-2.79;90.69
43741;BME280;29352;48.708;9.290;2022-11-15T02:11:47;97572.31;;;-3.16;90.84
43741;BME280;29352;48.708;9.290;2022-11-15T02:14:17;97575.19;;;-3.39;92.64
43741;BME280;29352;48.708;9.290;2022-11-15T02:25:57;97556.94;;;-3.00;91.97
43741;BME280;29352;48.708;9.290;2022-11-15T02:40:13;97549.50;;;-3.34;91.16
43741;BME280;29352;48.708;9.290;2022-11-15T02:43:10;97544.56;;;-3.37;91.06
43741;BME280;29352;48.708;9.290;2022-11-15T02:46:23;97546.44;;;-3.68;93.42
43741;BME280;29352;48.708;9.290;2022-11-15T02:49:28;97542.94;;;-3.38;91.89
43741;BME280;29352;48.708;9.290;2022-11-15T02:51:56;97538.09;;;-3.42;92.64
43741;BME280;29352;48.708;9.290;2022-11-15T02:54:24;97540.44;;;-3.49;92.94
43741;BME280;29352;48.708;9.290;2022-11-15T02:56:58;97527.94;;;-3.36;91.00
43741;BME280;29352;48.708;9.290;2022-11-15T03:00:22;97527.94;;;-3.36;92.32
43741;BME280;29352;48.708;9.290;2022-11-15T03:05:35;97518.75;;;-3.11;92.35
43741;BME280;29352;48.708;9.290;2022-11-15T03:08:31;97522.72;;;-3.36;94.02
43741;BME280;29352;48.708;9.290;2022-11-15T03:11:11;97524.34;;;-2.86;93.34
43741;BME280;29352;48.708;9.290;2022-11-15T03:13:52;97526.44;;;-2.99;91.54
43741;BME280;29352;48.708;9.290;2022-11-15T03:16:40;97516.81;;;-2.99;91.54
43741;BME280;29352;48.708;9.290;2022-11-15T03:21:48;97514.50;;;-2.55;89.09
43741;BME280;29352;48.708;9.290;2022-11-15T03:24:20;97508.28;;;-3.01;89.66
43741;BME280;29352;48.708;9.290;2022-11-15T03:26:53;97511.47;;;-3.07;88.93
43741;BME280;29352;48.708;9.290;2022-11-15T03:29:35;97513.47;;;-2.81;90.16
43741;BME280;29352;48.708;9.290;2022-11-15T03:32:14;97511.03;;;-3.02;91.23
43741;BME280;29352;48.708;9.290;2022-11-15T03:37:38;97493.13;;;-2.78;89.75
43741;BME280;29352;48.708;9.290;2022-11-15T03:40:11;97496.19;;;-3.02;90.18
43741;BME280;29352;48.708;9.290;2022-11-15T03:43:10;97506.63;;;-2.82;90.97
43741;BME280;29352;48.708;9.290;2022-11-15T03:45:43;97497.97;;;-2.93;91.91
43741;BME280;29352;48.708;9.290;2022-11-15T03:48:22;97487.38;;;-2.91;90.50
43741;BME280;29352;48.708;9.290;2022-11-15T03:50:52;97489.88;;;-2.99;90.27
43741;BME280;29352;48.708;9.290;2022-11-15T03:53:18;97495.78;;;-3.07;92.16
43741;BME280;29352;48.708;9.290;2022-11-15T03:55:44;97494.28;;;-3.19;91.89
43741;BME280;29352;48.708;9.290;2022-11-15T03:58:09;97491.41;;;-3.06;91.87
43741;BME280;29352;48.708;9.290;2022-11-15T04:00:35;97485.63;;;-3.10;91.01
43741;BME280;29352;48.708;9.290;2022-11-15T04:03:01;97481.78;;;-3.25;90.73
43741;BME280;29352;48.708;9.290;2022-11-15T04:05:26;97487.53;;;-3.22;92.54
43741;BME280;29352;48.708;9.290;2022-11-15T04:07:52;97488.50;;;-3.13;91.44
43741;BME280;29352;48.708;9.290;2022-11-15T04:10:17;97484.13;;;-3.32;92.37
43741;BME280;29352;48.708;9.290;2022-11-15T04:12:45;97480.69;;;-3.23;90.60
43741;BME280;29352;48.708;9.290;2022-11-15T04:15:16;97481.66;;;-3.24;90.45
43741;BME280;29352;48.708;9.290;2022-11-15T04:17:48;97481.94;;;-3.37;90.86
43741;BME280;29352;48.708;9.290;2022-11-15T04:20:18;97482.19;;;-3.30;91.39
43741;BME280;29352;48.708;9.290;2022-11-15T04:23:05;97481.66;;;-3.34;90.73
43741;BME280;29352;48.708;9.290;2022-11-15T04:25:54;97482.75;;;-3.36;91.01
43741;BME280;29352;48.708;9.290;2022-11-15T04:28:22;97489.34;;;-3.51;91.04
43741;BME280;29352;48.708;9.290;2022-11-15T04:30:48;97481.78;;;-3.54;90.98
43741;BME280;29352;48.708;9.290;2022-11-15T04:33:14;97479.47;;;-3.48;90.71
43741;BME280;29352;48.708;9.290;2022-11-15T04:35:40;97474.94;;;-3.55;90.26
43741;BME280;29352;48.708;9.290;2022-11-15T04:38:09;97474.78;;;-3.64;91.34
43741;BME280;29352;48.708;9.290;2022-11-15T04:40:37;97473.16;;;-3.55;88.82
43741;BME280;29352;48.708;9.290;2022-11-15T04:43:03;97469.84;;;-3.38;88.59
43741;BME280;29352;48.708;9.290;2022-11-15T04:45:30;97468.16;;;-3.87;89.69
43741;BME280;29352;48.708;9.290;2022-11-15T04:47:55;97468.09;;;-4.16;89.19
43741;BME280;29352;48.708;9.290;2022-11-15T04:50:21;97458.78;;;-4.09;89.87
43741;BME280;29352;48.708;9.290;2022-11-15T04:52:53;97462.34;;;-4.10;90.33
43741;BME280;29352;48.708;9.290;2022-11-15T04:55:20;97471.56;;;-4.06;90.99
43741;BME280;29352;48.708;9.290;2022-11-15T04:57:45;97462.69;;;-3.94;93.41
43741;BME280;29352;48.708;9.290;2022-11-15T05:00:13;97459.78;;;-3.91;92.55
43741;BME280;29352;48.708;9.290;2022-11-15T05:02:41;97460.34;;;-3.77;91.67
43741;BME280;29352;48.708;9.290;2022-11-15T05:05:25;97459.41;;;-3.86;92.21
43741;BME280;29352;48.708;9.290;2022-11-15T05:07:51;97448.41;;;-3.70;91.60
43741;BME280;29352;48.708;9.290;2022-11-15T05:10:17;97450.22;;;-3.71;91.28
43741;BME280;29352;48.708;9.290;2022-11-15T05:12:42;97453.50;;;-3.78;91.71
43741;BME280;29352;48.708;9.290;2022-11-15T05:15:08;97453.38;;;-3.87;91.79
43741;BME280;29352;48.708;9.290;2022-11-15T05:17:34;97446.78;;;-3.71;90.75
43741;BME280;29352;48.708;9.290;2022-11-15T05:19:59;97450.19;;;-3.22;88.85
43741;BME280;29352;48.708;9.290;2022-11-15T05:22:26;97451.69;;;-3.88;90.60
43741;BME280;29352;48.708;9.290;2022-11-15T05:24:52;97454.31;;;-3.97;92.45
43741;BME280;29352;48.708;9.290;2022-11-15T05:27:17;97454.56;;;-3.91;93.07
43741;BME280;29352;48.708;9.290;2022-11-15T05:29:43;97446.09;;;-3.64;95.28
43741;BME280;29352;48.708;9.290;2022-11-15T05:32:09;97451.19;;;-3.62;93.29
43741;BME280;29352;48.708;9.290;2022-11-15T05:34:36;97447.47;;;-3.50;93.84
43741;BME280;29352;48.708;9.290;2022-11-15T05:37:03;97448.16;;;-3.58;93.72
43741;BME280;29352;48.708;9.290;2022-11-15T05:39:48;97450.63;;;-3.56;91.64
43741;BME280;29352;48.708;9.290;2022-11-15T05:42:15;97446.63;;;-3.60;91.16
43741;BME280;29352;48.708;9.290;2022-11-15T05:44:47;97444.72;;;-3.58;93.12
43741;BME280;29352;48.708;9.290;2022-11-15T05:47:20;97432.78;;;-3.70;90.93
43741;BME280;29352;48.708;9.290;2022-11-15T05:49:51;97436.06;;;-3.68;92.24
43741;BME280;29352;48.708;9.290;2022-11-15T05:52:24;97432.63;;;-3.78;92.26
43741;BME280;29352;48.708;9.290;2022-11-15T05:54:56;97426.16;;;-3.84;91.57
43741;BME280;29352;48.708;9.290;2022-11-15T05:57:24;97435.81;;;-3.55;91.06
43741;BME280;29352;48.708;9.290;2022-11-15T05:59:50;97430.56;;;-3.94;91.95
43741;BME280;29352;48.708;9.290;2022-11-15T06:02:16;97444.56;;;-3.86;91.57
43741;BME280;29352;48.708;9.290;2022-11-15T06:04:42;97442.78;;;-3.95;91.23
43741;BME280;29352;48.708;9.290;2022-11-15T06:07:07;97443.88;;;-3.97;91.05
43741;BME280;29352;48.708;9.290;2022-11-15T06:09:33;97440.09;;;-4.24;91.80
43741;BME280;29352;48.708;9.290;2022-11-15T06:11:58;97434.13;;;-4.05;92.26
43741;BME280;29352;48.708;9.290;2022-11-15T06:14:23;97435.66;;;-3.93;93.62
43741;BME280;29352;48.708;9.290;2022-11-15T06:16:49;97438.25;;;-3.93;93.45
43741;BME280;29352;48.708;9.290;2022-11-15T06:19:14;97434.28;;;-3.77;92.67
43741;BME280;29352;48.708;9.290;2022-11-15T06:21:39;97446.22;;;-4.04;91.61
43741;BME280;29352;48.708;9.290;2022-11-15T06:24:05;97446.47;;;-3.88;91.14
43741;BME280;29352;48.708;9.290;2022-11-15T06:26:31;97440.97;;;-3.94;91.19
43741;BME280;29352;48.708;9.290;2022-11-15T06:28:57;97446.66;;;-4.30;91.69
43741;BME280;29352;48.708;9.290;2022-11-15T06:31:22;97447.84;;;-4.03;91.38
43741;BME280;29352;48.708;9.290;2022-11-15T06:33:48;97443.59;;;-3.94;90.36
43741;BME280;29352;48.708;9.290;2022-11-15T06:36:14;97450.94;;;-4.09;90.75
43741;BME280;29352;48.708;9.290;2022-11-15T06:38:43;97446.28;;;-4.15;91.71
43741;BME280;29352;48.708;9.290;2022-11-15T06:41:11;97442.66;;;-3.74;92.70
43741;BME280;29352;48.708;9.290;2022-11-15T06:43:39;97451.41;;;-3.07;91.84
43741;BME280;29352;48.708;9.290;2022-11-15T06:46:06;97449.31;;;-2.56;89.43
43741;BME280;29352;48.708;9.290;2022-11-15T06:48:33;97441.13;;;-1.88;87.22
43741;BME280;29352;48.708;9.290;2022-11-15T06:51:01;97444.44;;;-1.33;85.55
43741;BME280;29352;48.708;9.290;2022-11-15T06:53:29;97435.13;;;-1.09;82.53
43741;BME280;29352;48.708;9.290;2022-11-15T06:56:03;97432.63;;;-0.16;79.28
43741;BME280;29352;48.708;9.290;2022-11-15T06:58:31;97442.03;;;0.03;76.16
43741;BME280;29352;48.708;9.290;2022-11-15T07:01:09;97442.25;;;-0.93;79.07
43741;BME280;29352;48.708;9.290;2022-11-15T07:03:39;97440.75;;;0.15;77.63
43741;BME280;29352;48.708;9.290;2022-11-15T07:06:07;97434.22;;;0.27;77.13
43741;BME280;29352;48.708;9.290;2022-11-15T07:08:33;97439.81;;;0.40;75.71
43741;BME280;29352;48.708;9.290;2022-11-15T07:11:01;97430.91;;;1.23;73.33
43741;BME280;29352;48.708;9.290;2022-11-15T07:13:30;97443.34;;;0.07;78.29
43741;BME280;29352;48.708;9.290;2022-11-15T07:16:06;97445.06;;;0.32;76.04
43741;BME280;29352;48.708;9.290;2022-11-15T07:18:38;97440.63;;;0.74;77.94
43741;BME280;29352;48.708;9.290;2022-11-15T07:21:08;97443.94;;;0.51;77.21
43741;BME280;29352;48.708;9.290;2022-11-15T07:23:36;97434.47;;;1.47;75.42
43741;BME280;29352;48.708;9.290;2022-11-15T07:26:03;97440.53;;;1.39;74.94
43741;BME280;29352;48.708;9.290;2022-11-15T07:28:29;97449.97;;;1.01;77.02
43741;BME280;29352;48.708;9.290;2022-11-15T07:30:55;97436.09;;;1.48;72.85
43741;BME280;29352;48.708;9.290;2022-11-15T07:33:20;97434.66;;;1.76;70.04
43741;BME280;29352;48.708;9.290;2022-11-15T07:35:46;97434.22;;;1.09;73.52
43741;BME280;29352;48.708;9.290;2022-11-15T07:38:16;97442.13;;;0.52;77.26
43741;BME280;29352;48.708;9.290;2022-11-15T07:40:45;97446.44;;;0.02;79.22
43741;BME280;29352;48.708;9.290;2022-11-15T07:43:11;97422.00;;;2.11;74.75
43741;BME280;29352;48.708;9.290;2022-11-15T07:45:45;97423.72;;;2.73;71.82
43741;BME280;29352;48.708;9.290;2022-11-15T07:48:11;97429.84;;;3.41;72.96
43741;BME280;29352;48.708;9.290;2022-11-15T07:50:40;97418.25;;;4.87;67.86
43741;BME280;29352;48.708;9.290;2022-11-15T07:53:08;97413.09;;;5.35;66.69
43741;BME280;29352;48.708;9.290;2022-11-15T07:55:35;97407.28;;;6.95;61.39
43741;BME280;29352;48.708;9.290;2022-11-15T07:58:03;97403.91;;;6.20;63.26
43741;BME280;29352;48.708;9.290;2022-11-15T08:00:30;97411.34;;;7.04;61.41
43741;BME280;29352;48.708;9.290;2022-11-15T08:03:13;97396.53;;;7.55;60.65
43741;BME280;29352;48.708;9.290;2022-11-15T08:05:42;97401.41;;;7.71;60.60
43741;BME280;29352;48.708;9.290;2022-11-15T08:08:10;97397.06;;;7.05;61.45
43741;BME280;29352;48.708;9.290;2022-11-15T08:10:36;97386.59;;;8.34;58.61
43741;BME280;29352;48.708;9.290;2022-11-15T08:13:08;97393.91;;;7.48;60.99
43741;BME280;29352;48.708;9.290;2022-11-15T08:15:36;97400.59;;;5.98;65.08
43741;BME280;29352;48.708;9.290;2022-11-15T08:18:05;97392.97;;;5.40;66.54
43741;BME280;29352;48.708;9.290;2022-11-15T08:20:32;97390.44;;;5.26;68.17
43741;BME280;29352;48.708;9.290;2022-11-15T08:23:01;97388.91;;;5.10;69.10
43741;BME280;29352;48.708;9.290;2022-11-15T08:25:30;97393.16;;;5.74;67.81
43741;BME280;29352;48.708;9.290;2022-11-15T08:28:00;97380.53;;;7.75;62.97
43741;BME280;29352;48.708;9.290;2022-11-15T08:30:28;97381.38;;;6.97;63.48
43741;BME280;29352;48.708;9.290;2022-11-15T08:32:57;97382.38;;;5.75;64.94
43741;BME280;29352;48.708;9.290;2022-11-15T08:35:24;97382.13;;;5.29;68.23
43741;BME280;29352;48.708;9.290;2022-11-15T08:37:52;97380.16;;;5.85;68.11
43741;BME280;29352;48.708;9.290;2022-11-15T08:40:18;97373.41;;;6.77;64.92
43741;BME280;29352;48.708;9.290;2022-11-15T08:42:46;97375.81;;;6.65;65.53
43741;BME280;29352;48.708;9.290;2022-11-15T08:45:13;97370.31;;;7.14;63.41
43741;BME280;29352;48.708;9.290;2022-11-15T08:47:38;97364.16;;;5.59;65.32
43741;BME280;29352;48.708;9.290;2022-11-15T08:50:05;97362.97;;;6.49;63.81
43741;BME280;29352;48.708;9.290;2022-11-15T08:52:31;97364.78;;;6.29;65.25
43741;BME280;29352;48.708;9.290;2022-11-15T08:54:57;97361.31;;;5.60;66.72
43741;BME280;29352;48.708;9.290;2022-11-15T08:57:22;97352.16;;;6.57;64.76
43741;BME280;29352;48.708;9.290;2022-11-15T08:59:48;97355.81;;;6.23;65.11
43741;BME280;29352;48.708;9.290;2022-11-15T09:02:14;97360.44;;;5.46;65.86
43741;BME280;29352;48.708;9.290;2022-11-15T09:04:44;97357.34;;;5.84;67.33
43741;BME280;29352;48.708;9.290;2022-11-15T09:07:10;97347.88;;;7.09;62.86
43741;BME280;29352;48.708;9.290;2022-11-15T09:09:37;97337.34;;;7.41;61.27
43741;BME280;29352;48.708;9.290;2022-11-15T09:12:05;97343.78;;;7.07;62.88
43741;BME280;29352;48.708;9.290;2022-11-15T09:14:31;97350.97;;;5.31;67.21
43741;BME280;29352;48.708;9.290;2022-11-15T09:16:57;97348.53;;;5.71;68.94
43741;BME280;29352;48.708;9.290;2022-11-15T09:19:23;97339.13;;;6.56;67.82
43741;BME280;29352;48.708;9.290;2022-11-15T09:21:48;97341.25;;;7.39;65.10
43741;BME280;29352;48.708;9.290;2022-11-15T09:24:14;97342.28;;;7.38;63.62
43741;BME280;29352;48.708;9.290;2022-11-15T09:26:40;97337.31;;;7.54;63.51
43741;BME280;29352;48.708;9.290;2022-11-15T09:29:06;97341.09;;;5.94;66.19
43741;BME280;29352;48.708;9.290;2022-11-15T09:31:32;97346.00;;;6.17;66.48
43741;BME280;29352;48.708;9.290;2022-11-15T09:33:57;97334.84;;;6.95;65.66
43741;BME280;29352;48.708;9.290;2022-11-15T09:36:23;97333.91;;;7.34;64.88
43741;BME280;29352;48.708;9.290;2022-11-15T09:38:49;97333.91;;;7.34;63.63
43741;BME280;29352;48.708;9.290;2022-11-15T09:41:19;97325.06;;;8.30;60.70
43741;BME280;29352;48.708;9.290;2022-11-15T09:47:28;97321.50;;;8.68;60.66
43741;BME280;29352;48.708;9.290;2022-11-15T09:49:59;97320.88;;;8.91;59.50
43741;BME280;29352;48.708;9.290;2022-11-15T09:52:36;97324.47;;;7.96;61.79
43741;BME280;29352;48.708;9.290;2022-11-15T09:55:05;97315.63;;;8.59;60.06
43741;BME280;29352;48.708;9.290;2022-11-15T09:58:00;97313.44;;;8.99;59.38
43741;BME280;29352;48.708;9.290;2022-11-15T10:00:44;97307.44;;;8.61;61.31
43741;BME280;29352;48.708;9.290;2022-11-15T10:03:27;97312.22;;;8.27;61.38
43741;BME280;29352;48.708;9.290;2022-11-15T10:06:01;97307.41;;;7.79;62.93
43741;BME280;29352;48.708;9.290;2022-11-15T10:11:37;97308.78;;;7.43;62.87
43741;BME280;29352;48.708;9.290;2022-11-15T10:14:11;97303.63;;;7.48;63.30
43741;BME280;29352;48.708;9.290;2022-11-15T10:22:47;97295.97;;;8.35;64.39
43741;BME280;29352;48.708;9.290;2022-11-15T10:30:38;97277.38;;;7.72;61.94
43741;BME280;29352;48.708;9.290;2022-11-15T10:35:43;97280.13;;;8.22;62.63
43741;BME280;29352;48.708;9.290;2022-11-15T10:38:10;97272.81;;;8.42;63.51
43741;BME280;29352;48.708;9.290;2022-11-15T10:40:39;97266.50;;;7.80;63.72
43741;BME280;29352;48.708;9.290;2022-11-15T10:43:15;97263.75;;;7.10;65.50
43741;BME280;29352;48.708;9.290;2022-11-15T10:45:43;97267.03;;;7.57;64.75
43741;BME280;29352;48.708;9.290;2022-11-15T10:50:39;97261.13;;;7.55;64.95
43741;BME280;29352;48.708;9.290;2022-11-15T10:53:23;97258.78;;;7.72;63.44
43741;BME280;29352;48.708;9.290;2022-11-15T10:56:14;97259.53;;;6.96;66.17
43741;BME280;29352;48.708;9.290;2022-11-15T10:58:53;97254.22;;;6.96;64.99
43741;BME280;29352;48.708;9.290;2022-11-15T11:01:26;97246.94;;;7.36;65.33
43741;BME280;29352;48.708;9.290;2022-11-15T11:04:06;97248.63;;;7.62;63.42
43741;BME280;29352;48.708;9.290;2022-11-15T11:06:56;97249.56;;;7.74;63.62
43741;BME280;29352;48.708;9.290;2022-11-15T11:09:37;97241.38;;;7.44;64.07
43741;BME280;29352;48.708;9.290;2022-11-15T11:12:11;97239.81;;;7.30;65.06
43741;BME280;29352;48.708;9.290;2022-11-15T11:14:38;97240.16;;;7.40;64.94
43741;BME280;29352;48.708;9.290;2022-11-15T11:17:24;97236.03;;;7.51;65.01
43741;BME280;29352;48.708;9.290;2022-11-15T11:25:45;97229.50;;;7.47;65.94
43741;BME280;29352;48.708;9.290;2022-11-15T11:37:49;97230.75;;;7.44;66.71
43741;BME280;29352;48.708;9.290;2022-11-15T11:40:40;97234.81;;;7.02;67.50
43741;BME280;29352;48.708;9.290;2022-11-15T11:46:35;97209.09;;;7.47;66.46
43741;BME280;29352;48.708;9.290;2022-11-15T11:49:30;97205.38;;;7.10;66.84
43741;BME280;29352;48.708;9.290;2022-11-15T11:52:17;97200.25;;;7.22;67.28
43741;BME280;29352;48.708;9.290;2022-11-15T11:55:10;97190.47;;;7.54;65.47
43741;BME280;29352;48.708;9.290;2022-11-15T11:58:14;97192.94;;;7.10;65.94
43741;BME280;29352;48.708;9.290;2022-11-15T12:07:21;97184.31;;;7.60;67.13
43741;BME280;29352;48.708;9.290;2022-11-15T12:10:02;97190.53;;;7.79;66.08
43741;BME280;29352;48.708;9.290;2022-11-15T12:12:53;97187.59;;;7.17;68.66
43741;BME280;29352;48.708;9.290;2022-11-15T12:15:35;97176.59;;;6.49;69.83
43741;BME280;29352;48.708;9.290;2022-11-15T12:18:13;97174.03;;;6.94;69.43
43741;BME280;29352;48.708;9.290;2022-11-15T12:20:51;97171.44;;;6.74;70.60
43741;BME280;29352;48.708;9.290;2022-11-15T12:23:27;97166.63;;;6.31;71.16
43741;BME280;29352;48.708;9.290;2022-11-15T12:28:47;97159.69;;;6.43;69.49
43741;BME280;29352;48.708;9.290;2022-11-15T12:31:35;97154.75;;;7.18;67.23
43741;BME280;29352;48.708;9.290;2022-11-15T12:36:45;97168.69;;;5.76;71.52
43741;BME280;29352;48.708;9.290;2022-11-15T12:39:13;97161.38;;;5.91;71.40
43741;BME280;29352;48.708;9.290;2022-11-15T12:41:42;97164.22;;;5.96;72.44
43741;BME280;29352;48.708;9.290;2022-11-15T13:02:37;97153.69;;;5.02;76.33
43741;BME280;29352;48.708;9.290;2022-11-15T13:12:56;97132.25;;;6.04;74.34
43741;BME280;29352;48.708;9.290;2022-11-15T13:15:54;97133.06;;;5.72;74.76
43741;BME280;29352;48.708;9.290;2022-11-15T13:20:58;97126.94;;;5.64;76.01
43741;BME280;29352;48.708;9.290;2022-11-15T13:23:25;97112.22;;;6.28;73.58
43741;BME280;29352;48.708;9.290;2022-11-15T13:28:49;97115.56;;;5.71;74.94
43741;BME280;29352;48.708;9.290;2022-11-15T13:33:58;97108.84;;;4.73;77.72
43741;BME280;29352;48.708;9.290;2022-11-15T13:36:29;97114.03;;;5.08;77.42
43741;BME280;29352;48.708;9.290;2022-11-15T13:39:06;97106.81;;;5.77;74.06
43741;BME280;29352;48.708;9.290;2022-11-15T13:41:50;97101.09;;;5.86;74.14
43741;BME280;29352;48.708;9.290;2022-11-15T13:44:26;97094.34;;;6.04;74.07
43741;BME280;29352;48.708;9.290;2022-11-15T13:47:06;97079.22;;;6.69;71.49
43741;BME280;29352;48.708;9.290;2022-11-15T13:49:38;97080.41;;;6.35;72.28
43741;BME280;29352;48.708;9.290;2022-11-15T13:52:08;97073.44;;;6.47;72.64
43741;BME280;29352;48.708;9.290;2022-11-15T13:57:45;97065.47;;;6.47;73.24
43741;BME280;29352;48.708;9.290;2022-11-15T14:03:33;97055.25;;;6.51;72.84
43741;BME280;29352;48.708;9.290;2022-11-15T14:06:12;97048.72;;;5.95;74.68
43741;BME280;29352;48.708;9.290;2022-11-15T14:08:42;97058.53;;;5.68;75.09
43741;BME280;29352;48.708;9.290;2022-11-15T14:11:22;97055.47;;;5.91;74.85
43741;BME280;29352;48.708;9.290;2022-11-15T14:19:01;97036.28;;;6.02;76.56
43741;BME280;29352;48.708;9.290;2022-11-15T14:21:28;97029.31;;;6.14;75.71
43741;BME280;29352;48.708;9.290;2022-11-15T14:24:17;97023.47;;;5.79;76.84
43741;BME280;29352;48.708;9.290;2022-11-15T14:26:44;97019.25;;;6.30;74.14
43741;BME280;29352;48.708;9.290;2022-11-15T14:29:29;97006.19;;;6.80;71.71
43741;BME280;29352;48.708;9.290;2022-11-15T14:32:18;97013.00;;;6.17;74.12
43741;BME280;29352;48.708;9.290;2022-11-15T14:34:46;97016.78;;;5.70;78.28
43741;BME280;29352;48.708;9.290;2022-11-15T14:39:49;97013.16;;;5.31;75.98
43741;BME280;29352;48.708;9.290;2022-11-15T14:42:16;97009.47;;;5.39;78.66
43741;BME280;29352;48.708;9.290;2022-11-15T14:44:42;97009.06;;;5.42;80.00
43741;BME280;29352;48.708;9.290;2022-11-15T14:47:07;97001.72;;;5.57;77.52
43741;BME280;29352;48.708;9.290;2022-11-15T14:49:33;97002.34;;;5.39;76.18
43741;BME280;29352;48.708;9.290;2022-11-15T14:51:58;97006.63;;;5.14;77.58
43741;BME280;29352;48.708;9.290;2022-11-15T14:54:23;97003.97;;;5.67;75.42
43741;BME280;29352;48.708;9.290;2022-11-15T14:56:49;96991.84;;;6.04;77.29
43741;BME280;29352;48.708;9.290;2022-11-15T14:59:14;96993.13;;;5.62;77.47
43741;BME280;29352;48.708;9.290;2022-11-15T15:01:40;96989.13;;;5.33;77.68
43741;BME280;29352;48.708;9.290;2022-11-15T15:04:05;96990.13;;;5.45;78.63
43741;BME280;29352;48.708;9.290;2022-11-15T15:06:30;96986.06;;;5.69;76.81
43741;BME280;29352;48.708;9.290;2022-11-15T15:08:56;96983.41;;;5.56;75.16
43741;BME280;29352;48.708;9.290;2022-11-15T15:11:30;96981.16;;;5.59;75.34
43741;BME280;29352;48.708;9.290;2022-11-15T15:13:56;96974.78;;;5.93;74.30
43741;BME280;29352;48.708;9.290;2022-11-15T15:16:25;96977.81;;;5.97;72.81
43741;BME280;29352;48.708;9.290;2022-11-15T15:18:51;96965.47;;;6.23;72.12
43741;BME280;29352;48.708;9.290;2022-11-15T15:21:21;96964.97;;;6.07;72.29
43741;BME280;29352;48.708;9.290;2022-11-15T15:23:48;96971.13;;;5.81;73.78
43741;BME280;29352;48.708;9.290;2022-11-15T15:26:14;96972.38;;;5.79;74.73
43741;BME280;29352;48.708;9.290;2022-11-15T15:28:40;96956.09;;;5.68;74.28
43741;BME280;29352;48.708;9.290;2022-11-15T15:31:06;96958.97;;;5.67;77.30
43741;BME280;29352;48.708;9.290;2022-11-15T15:33:32;96950.19;;;5.73;76.89
43741;BME280;29352;48.708;9.290;2022-11-15T15:35:58;96950.22;;;5.53;78.10